createdAt,value
2022-09-12T00:01:42.338Z,506.50
2022-09-12T00:04:30.266Z,562.38
2022-09-12T00:07:19.541Z,556.72
2022-09-12T00:10:08.087Z,537.58
2022-09-12T00:12:56.083Z,549.17
2022-09-12T00:15:45.370Z,535.05
2022-09-12T00:18:34.518Z,525.50
2022-09-12T00:21:23.415Z,538.45
2022-09-12T00:24:12.783Z,533.30
2022-09-12T00:27:00.663Z,532.58
2022-09-12T00:29:48.577Z,536.72
2022-09-12T00:32:36.536Z,518.55
2022-09-12T00:35:24.424Z,531.53
2022-09-12T00:38:12.586Z,524.50
2022-09-12T00:41:01.819Z,522.88
2022-09-12T00:43:51.020Z,537.13
2022-09-12T00:46:43.318Z,497.35
2022-09-12T00:49:34.658Z,536.50
2022-09-12T00:52:27.425Z,501.23
2022-09-12T00:55:19.400Z,549.45
2022-09-12T00:58:13.586Z,499.90
2022-09-12T01:01:01.794Z,492.50
2022-09-12T01:03:49.811Z,520.08
2022-09-12T01:06:41.743Z,515.90
2022-09-12T01:09:29.634Z,538.17
2022-09-12T01:12:18.474Z,492.80
2022-09-12T01:15:08.704Z,507.70
2022-09-12T01:18:10.920Z,516.78
2022-09-12T01:21:11.136Z,527.35
2022-09-12T01:24:26.608Z,491.52
2022-09-12T01:27:37.755Z,501.38
2022-09-12T01:30:41.257Z,475.50
2022-09-12T01:33:55.644Z,490.63
2022-09-12T01:36:52.824Z,486.20
2022-09-12T01:39:51.030Z,497.55
2022-09-12T01:42:48.203Z,485.50
2022-09-12T01:45:42.192Z,518.85
2022-09-12T01:48:35.735Z,496.05
2022-09-12T01:51:28.040Z,491.00
2022-09-12T01:54:21.644Z,491.63
2022-09-12T01:57:16.691Z,471.90
2022-09-12T02:00:10.182Z,476.65
2022-09-12T02:03:10.463Z,510.52
2022-09-12T02:06:04.443Z,496.23
2022-09-12T02:08:54.497Z,478.77
2022-09-12T02:11:45.658Z,483.05
2022-09-12T02:14:38.777Z,480.23
2022-09-12T02:17:27.698Z,471.83
2022-09-12T02:20:37.423Z,459.23
2022-09-12T02:23:31.913Z,486.95
2022-09-12T02:26:22.328Z,459.40
2022-09-12T02:29:12.301Z,482.63
2022-09-12T02:32:05.804Z,488.42
2022-09-12T02:35:00.589Z,469.58
2022-09-12T02:37:58.815Z,479.60
2022-09-12T02:40:46.827Z,476.20
2022-09-12T02:43:34.795Z,497.70
2022-09-12T02:46:27.090Z,474.88
2022-09-12T02:49:16.783Z,454.25
2022-09-12T02:52:05.285Z,454.08
2022-09-12T02:54:56.064Z,488.45
2022-09-12T02:57:44.102Z,453.63
2022-09-12T03:00:38.706Z,458.45
2022-09-12T03:03:43.270Z,460.67
2022-09-12T03:06:36.652Z,466.90
2022-09-12T03:09:35.716Z,465.80
2022-09-12T03:12:40.124Z,470.17
2022-09-12T03:15:41.954Z,458.15
2022-09-12T03:18:41.502Z,470.17
2022-09-12T03:21:34.095Z,437.13
2022-09-12T03:24:27.706Z,482.73
2022-09-12T03:27:20.757Z,444.13
2022-09-12T03:30:12.572Z,451.00
2022-09-12T03:33:00.449Z,457.60
2022-09-12T03:35:49.317Z,467.90
2022-09-12T03:38:37.197Z,456.55
2022-09-12T03:41:25.165Z,482.23
2022-09-12T03:44:13.092Z,461.23
2022-09-12T03:47:02.312Z,480.58
2022-09-12T03:49:50.222Z,467.50
2022-09-12T03:52:38.439Z,483.23
2022-09-12T03:55:26.605Z,462.88
2022-09-12T03:58:14.705Z,465.95
2022-09-12T04:01:07.606Z,450.67
2022-09-12T04:03:56.854Z,468.73
2022-09-12T04:06:44.738Z,458.95
2022-09-12T04:09:32.712Z,470.08
2022-09-12T04:12:20.701Z,477.25
2022-09-12T04:15:10.282Z,469.45
2022-09-12T04:18:02.440Z,450.83
2022-09-12T04:20:54.378Z,467.35
2022-09-12T04:23:42.882Z,441.65
2022-09-12T04:26:31.711Z,465.63
2022-09-12T04:29:19.675Z,444.75
2022-09-12T04:32:07.593Z,438.90
2022-09-12T04:34:55.476Z,472.95
2022-09-12T04:37:44.715Z,447.83
2022-09-12T04:40:33.235Z,445.35
2022-09-12T04:43:21.127Z,463.80
2022-09-12T04:46:10.072Z,443.30
2022-09-12T04:48:58.471Z,445.67
2022-09-12T04:51:46.533Z,450.83
2022-09-12T04:54:35.789Z,445.00
2022-09-12T04:57:23.661Z,475.65
2022-09-12T05:00:14.455Z,466.15
2022-09-12T05:03:02.822Z,460.25
2022-09-12T05:05:54.538Z,431.02
2022-09-12T05:08:44.577Z,471.15
2022-09-12T05:12:02.638Z,463.50
2022-09-12T05:14:44.192Z,437.90
2022-09-12T05:17:32.100Z,441.75
2022-09-12T05:20:19.968Z,446.73
2022-09-12T05:23:07.875Z,445.50
2022-09-12T05:25:58.518Z,459.75
2022-09-12T05:28:48.473Z,456.20
2022-09-12T05:31:37.042Z,453.17
2022-09-12T05:34:25.125Z,455.90
2022-09-12T05:37:13.019Z,473.33
2022-09-12T05:40:03.293Z,445.77
2022-09-12T05:42:51.251Z,454.10
2022-09-12T05:45:41.458Z,465.58
2022-09-12T05:48:29.429Z,469.83
2022-09-12T05:51:19.212Z,445.88
2022-09-12T05:54:08.959Z,452.58
2022-09-12T05:56:56.902Z,471.60
2022-09-12T05:59:45.253Z,472.13
2022-09-12T06:02:34.532Z,497.63
2022-09-12T06:05:22.764Z,467.08
2022-09-12T06:08:11.157Z,470.00
2022-09-12T06:11:03.356Z,486.52
2022-09-12T06:13:51.334Z,478.20
2022-09-12T06:16:40.039Z,487.48
2022-09-12T06:19:29.317Z,460.67
2022-09-12T06:22:17.935Z,495.25
2022-09-12T06:25:06.536Z,488.00
2022-09-12T06:27:54.395Z,504.02
2022-09-12T06:30:42.987Z,495.38
2022-09-12T06:33:31.561Z,507.33
2022-09-12T06:36:22.631Z,499.50
2022-09-12T06:39:13.077Z,548.17
2022-09-12T06:42:00.997Z,532.92
2022-09-12T06:44:55.442Z,522.63
2022-09-12T06:47:43.376Z,532.58
2022-09-12T06:50:31.280Z,546.28
2022-09-12T06:53:20.502Z,532.25
2022-09-12T06:56:11.614Z,546.22
2022-09-12T06:59:00.512Z,565.85
2022-09-12T07:01:48.465Z,549.13
2022-09-12T07:04:37.069Z,574.08
2022-09-12T07:07:25.084Z,546.22
2022-09-12T07:10:15.522Z,542.65
2022-09-12T07:13:05.893Z,542.17
2022-09-12T07:15:53.758Z,548.83
2022-09-12T07:18:41.623Z,516.92
2022-09-12T07:21:30.439Z,528.97
2022-09-12T07:24:18.305Z,541.28
2022-09-12T07:27:07.572Z,516.00
2022-09-12T07:29:55.866Z,530.47
2022-09-12T07:32:43.703Z,496.17
2022-09-12T07:35:34.361Z,512.17
2022-09-12T07:38:22.360Z,481.15
2022-09-12T07:41:13.766Z,504.17
2022-09-12T07:44:03.853Z,516.58
2022-09-12T07:46:52.227Z,512.80
2022-09-12T07:49:40.259Z,462.88
2022-09-12T07:52:28.122Z,511.67
2022-09-12T07:55:16.481Z,495.20
2022-09-12T07:58:04.620Z,510.13
2022-09-12T08:00:53.835Z,524.15
2022-09-12T08:03:42.876Z,479.83
2022-09-12T08:06:32.092Z,523.75
2022-09-12T08:09:19.945Z,507.98
2022-09-12T08:12:08.210Z,512.85
2022-09-12T08:14:56.135Z,512.90
2022-09-12T08:17:45.362Z,494.67
2022-09-12T08:20:33.253Z,507.70
2022-09-12T08:23:23.373Z,521.05
2022-09-12T08:26:12.285Z,518.35
2022-09-12T08:29:00.386Z,490.33
2022-09-12T08:31:48.312Z,492.58
2022-09-12T08:34:37.511Z,501.17
2022-09-12T08:37:25.393Z,516.85
2022-09-12T08:40:18.812Z,522.00
2022-09-12T08:43:19.177Z,540.75
2022-09-12T08:46:11.948Z,501.40
2022-09-12T08:49:03.738Z,506.40
2022-09-12T08:51:53.941Z,518.15
2022-09-12T08:54:44.600Z,515.63
2022-09-12T08:57:32.744Z,530.88
2022-09-12T09:00:21.546Z,494.85
2022-09-12T09:03:26.843Z,487.90
2022-09-12T09:06:28.051Z,483.33
2022-09-12T09:09:26.049Z,477.40
2022-09-12T09:12:23.212Z,482.60
2022-09-12T09:15:35.681Z,438.38
2022-09-12T09:18:25.875Z,448.92
2022-09-12T09:21:21.768Z,466.77
2022-09-12T09:24:11.235Z,457.40
2022-09-12T09:27:14.276Z,457.55
2022-09-12T09:30:16.660Z,413.20
2022-09-12T09:33:10.793Z,430.10
2022-09-12T09:36:05.388Z,439.42
2022-09-12T09:39:03.053Z,435.65
2022-09-12T09:42:01.514Z,439.80
2022-09-12T09:44:54.822Z,442.40
2022-09-12T09:47:43.078Z,455.23
2022-09-12T09:50:30.943Z,449.95
2022-09-12T09:53:30.492Z,459.08
2022-09-12T09:56:28.884Z,470.38
2022-09-12T09:59:19.642Z,482.23
2022-09-12T10:02:24.301Z,451.55
2022-09-12T10:05:18.067Z,465.45
2022-09-12T10:08:08.284Z,498.40
2022-09-12T10:10:58.932Z,485.20
2022-09-12T10:13:56.757Z,444.23
2022-09-12T10:16:52.652Z,445.55
2022-09-12T10:19:41.893Z,444.42
2022-09-12T10:22:30.423Z,417.95
2022-09-12T10:25:20.273Z,384.77
2022-09-12T10:28:23.989Z,423.33
2022-09-12T10:31:16.609Z,401.83
2022-09-12T10:34:05.636Z,419.52
2022-09-12T10:37:01.375Z,412.83
2022-09-12T10:39:53.703Z,395.02
2022-09-12T10:42:53.760Z,399.17
2022-09-12T10:45:41.841Z,385.25
2022-09-12T10:48:32.319Z,368.85
2022-09-12T10:51:28.722Z,389.90
2022-09-12T10:54:20.890Z,362.50
2022-09-12T10:57:53.914Z,347.73
2022-09-12T11:00:48.407Z,346.02
2022-09-12T11:03:52.317Z,345.73
2022-09-12T11:06:49.320Z,342.33
2022-09-12T11:09:47.557Z,333.63
2022-09-12T11:12:44.538Z,330.38
2022-09-12T11:15:57.703Z,329.52
2022-09-12T11:19:04.867Z,341.95
2022-09-12T11:22:14.674Z,344.33
2022-09-12T11:25:21.056Z,327.58
2022-09-12T11:28:25.020Z,324.23
2022-09-12T11:31:34.300Z,327.95
2022-09-12T11:34:30.467Z,324.52
2022-09-12T11:37:35.495Z,335.02
2022-09-12T11:40:31.052Z,350.58
2022-09-12T11:43:29.674Z,350.15
2022-09-12T11:46:22.392Z,351.20
2022-09-12T11:49:33.605Z,347.30
2022-09-12T11:52:24.930Z,354.13
2022-09-12T11:55:18.759Z,353.60
2022-09-12T11:58:09.828Z,383.92
2022-09-12T12:01:04.150Z,346.42
2022-09-12T12:03:52.580Z,361.73
2022-09-12T12:06:50.254Z,375.58
2022-09-12T12:09:47.292Z,345.55
2022-09-12T12:12:35.327Z,368.52
2022-09-12T12:15:26.509Z,349.13
2022-09-12T12:18:19.352Z,358.02
2022-09-12T12:21:39.965Z,353.70
2022-09-12T12:24:29.026Z,344.73
2022-09-12T12:27:27.036Z,368.58
2022-09-12T12:31:03.492Z,320.73
2022-09-12T12:34:29.694Z,347.25
2022-09-12T12:37:53.039Z,311.77
2022-09-12T12:40:40.908Z,312.65
2022-09-12T12:43:32.385Z,316.45
2022-09-12T12:46:24.193Z,316.65
2022-09-12T12:49:21.062Z,322.17
2022-09-12T12:52:16.917Z,302.05
2022-09-12T12:55:05.887Z,318.85
2022-09-12T12:57:55.831Z,328.15
2022-09-12T13:00:47.068Z,308.58
2022-09-12T13:03:35.534Z,315.83
2022-09-12T13:06:32.430Z,289.08
2022-09-12T13:09:25.948Z,307.42
2022-09-12T13:12:20.771Z,318.77
2022-09-12T13:15:47.482Z,306.17
2022-09-12T13:18:43.797Z,277.33
2022-09-12T13:21:31.726Z,294.95
2022-09-12T13:24:25.755Z,289.35
2022-09-12T13:27:18.783Z,293.92
2022-09-12T13:30:09.013Z,277.67
2022-09-12T13:32:59.918Z,300.65
2022-09-12T13:36:00.217Z,284.23
2022-09-12T13:38:58.812Z,280.70
2022-09-12T13:42:26.706Z,292.05
2022-09-12T13:45:20.905Z,263.75
2022-09-12T13:48:16.686Z,256.70
2022-09-12T13:51:05.935Z,271.67
2022-09-12T13:53:57.342Z,273.27
2022-09-12T13:56:49.349Z,259.08
2022-09-12T13:59:42.683Z,272.45
2022-09-12T14:02:31.298Z,281.83
2022-09-12T14:05:22.460Z,253.55
2022-09-12T14:08:14.315Z,245.00
2022-09-12T14:11:09.907Z,266.83
2022-09-12T14:13:59.179Z,238.93
2022-09-12T14:16:49.177Z,243.00
2022-09-12T14:19:37.086Z,245.93
2022-09-12T14:22:27.418Z,248.85
2022-09-12T14:25:16.404Z,244.48
2022-09-12T14:28:04.739Z,253.25
2022-09-12T14:31:21.977Z,236.60
2022-09-12T14:34:13.984Z,224.48
2022-09-12T14:37:07.791Z,230.57
2022-09-12T14:39:56.152Z,224.77
2022-09-12T14:42:44.747Z,229.93
2022-09-12T14:45:33.308Z,233.15
2022-09-12T14:48:21.246Z,216.98
2022-09-12T14:51:21.951Z,215.32
2022-09-12T14:54:36.048Z,216.07
2022-09-12T14:57:36.580Z,233.15
2022-09-12T15:00:24.531Z,226.02
2022-09-12T15:03:25.857Z,231.65
2022-09-12T15:06:23.892Z,221.45
2022-09-12T15:09:14.534Z,224.15
2022-09-12T15:12:02.655Z,229.63
2022-09-12T15:14:50.576Z,216.80
2022-09-12T15:17:38.745Z,232.10
2022-09-12T15:20:26.742Z,211.35
2022-09-12T15:23:20.962Z,224.23
2022-09-12T15:26:11.861Z,210.63
2022-09-12T15:28:59.761Z,212.15
2022-09-12T15:31:51.834Z,213.60
2022-09-12T15:34:39.708Z,197.50
2022-09-12T15:37:27.609Z,213.77
2022-09-12T15:40:17.783Z,215.73
2022-09-12T15:43:05.952Z,215.73
2022-09-12T15:45:53.990Z,210.52
2022-09-12T15:48:41.933Z,219.43
2022-09-12T15:51:29.909Z,210.20
2022-09-12T15:54:19.099Z,218.45
2022-09-12T15:57:08.393Z,223.65
2022-09-12T15:59:56.279Z,214.10
2022-09-12T16:02:44.392Z,214.43
2022-09-12T16:05:32.729Z,221.25
2022-09-12T16:08:20.626Z,207.63
2022-09-12T16:11:13.123Z,223.27
2022-09-12T16:14:03.688Z,205.60
2022-09-12T16:16:57.541Z,189.85
2022-09-12T16:19:45.453Z,238.40
2022-09-12T16:22:33.387Z,226.57
2022-09-12T16:25:21.301Z,230.48
2022-09-12T16:28:09.855Z,257.17
2022-09-12T16:31:00.178Z,242.13
2022-09-12T16:33:48.478Z,265.80
2022-09-12T16:36:36.400Z,280.73
2022-09-12T16:39:24.253Z,268.13
2022-09-12T16:42:12.160Z,274.33
2022-09-12T16:45:00.240Z,310.05
2022-09-12T16:47:49.457Z,287.02
2022-09-12T16:50:37.315Z,278.42
2022-09-12T16:53:25.153Z,292.45
2022-09-12T16:56:13.618Z,311.90
2022-09-12T16:59:01.469Z,322.25
2022-09-12T17:01:49.389Z,318.55
2022-09-12T17:04:38.625Z,338.90
2022-09-12T17:07:26.473Z,348.08
2022-09-12T17:10:14.400Z,352.55
2022-09-12T17:13:03.112Z,360.73
2022-09-12T17:15:51.318Z,401.30
2022-09-12T17:18:39.349Z,410.15
2022-09-12T17:21:28.711Z,447.55
2022-09-12T17:24:17.490Z,453.88
2022-09-12T17:27:05.831Z,457.00
2022-09-12T17:29:53.978Z,481.58
2022-09-12T17:32:41.843Z,444.10
2022-09-12T17:35:29.875Z,449.13
2022-09-12T17:38:24.578Z,436.40
2022-09-12T17:41:15.919Z,436.00
2022-09-12T17:44:07.214Z,422.23
2022-09-12T17:46:55.072Z,423.08
2022-09-12T17:49:42.905Z,436.05
2022-09-12T17:52:31.529Z,459.90
2022-09-12T17:55:20.889Z,419.30
2022-09-12T17:58:09.388Z,442.75
2022-09-12T18:01:19.375Z,454.48
2022-09-12T18:04:07.302Z,471.10
2022-09-12T18:06:57.383Z,475.30
2022-09-12T18:09:47.653Z,474.67
2022-09-12T18:12:37.573Z,527.75
2022-09-12T18:15:26.016Z,527.22
2022-09-12T18:18:15.113Z,531.58
2022-09-12T18:21:03.869Z,495.50
2022-09-12T18:23:51.692Z,496.98
2022-09-12T18:26:39.761Z,515.47
2022-09-12T18:29:29.017Z,495.13
2022-09-12T18:32:16.876Z,527.65
2022-09-12T18:35:05.810Z,528.03
2022-09-12T18:37:53.743Z,567.38
2022-09-12T18:40:41.611Z,527.35
2022-09-12T18:43:29.461Z,536.80
2022-09-12T18:46:20.522Z,580.38
2022-09-12T18:49:09.300Z,565.90
2022-09-12T18:51:57.153Z,565.00
2022-09-12T18:54:45.012Z,584.83
2022-09-12T18:57:35.017Z,546.70
2022-09-12T19:00:23.028Z,554.72
2022-09-12T19:03:12.250Z,560.15
2022-09-12T19:06:00.165Z,559.35
2022-09-12T19:08:48.884Z,575.55
2022-09-12T19:11:38.367Z,554.05
2022-09-12T19:14:27.363Z,559.45
2022-09-12T19:17:15.284Z,578.47
2022-09-12T19:20:05.713Z,552.30
2022-09-12T19:22:53.598Z,559.08
2022-09-12T19:25:41.585Z,562.28
2022-09-12T19:28:29.525Z,546.42
2022-09-12T19:31:20.198Z,547.03
2022-09-12T19:34:08.708Z,544.83
2022-09-12T19:36:59.323Z,506.25
2022-09-12T19:39:47.254Z,530.80
2022-09-12T19:42:35.198Z,512.17
2022-09-12T19:45:23.264Z,504.05
2022-09-12T19:48:11.156Z,490.73
2022-09-12T19:51:00.126Z,482.92
2022-09-12T19:53:50.125Z,490.48
2022-09-12T19:56:38.191Z,469.42
2022-09-12T19:59:26.139Z,486.90
2022-09-12T20:02:14.062Z,516.63
2022-09-12T20:05:02.297Z,462.30
2022-09-12T20:07:50.157Z,472.38
2022-09-12T20:10:39.363Z,475.27
2022-09-12T20:13:27.656Z,471.90
2022-09-12T20:16:21.643Z,469.95
2022-09-12T20:19:10.605Z,426.73
2022-09-12T20:21:58.700Z,438.95
2022-09-12T20:24:46.541Z,452.50
2022-09-12T20:27:35.755Z,426.58
2022-09-12T20:30:23.684Z,452.65
2022-09-12T20:33:11.549Z,433.25
2022-09-12T20:36:07.334Z,460.25
2022-09-12T20:38:57.961Z,450.52
2022-09-12T20:41:46.541Z,450.48
2022-09-12T20:44:35.773Z,472.30
2022-09-12T20:47:23.631Z,456.20
2022-09-12T20:50:11.605Z,421.85
2022-09-12T20:53:01.179Z,463.83
2022-09-12T20:55:52.570Z,448.23
2022-09-12T20:58:43.805Z,442.20
2022-09-12T21:01:34.185Z,457.13
2022-09-12T21:04:23.706Z,444.13
2022-09-12T21:07:11.693Z,459.60
2022-09-12T21:09:59.557Z,440.05
2022-09-12T21:12:47.434Z,466.75
2022-09-12T21:15:35.288Z,444.38
2022-09-12T21:18:24.479Z,438.58
2022-09-12T21:21:13.784Z,473.50
2022-09-12T21:24:03.630Z,424.15
2022-09-12T21:26:51.498Z,439.20
2022-09-12T21:29:39.462Z,429.52
2022-09-12T21:32:32.417Z,416.63
2022-09-12T21:35:21.891Z,423.40
2022-09-12T21:38:09.728Z,438.83
2022-09-12T21:41:04.100Z,436.45
2022-09-12T21:43:51.998Z,437.73
2022-09-12T21:46:39.949Z,441.92
2022-09-12T21:49:28.131Z,440.25
2022-09-12T21:52:17.354Z,430.98
2022-09-12T21:55:07.051Z,455.98
2022-09-12T21:57:55.017Z,455.98
2022-09-12T22:00:43.713Z,466.50
2022-09-12T22:03:32.659Z,473.38
2022-09-12T22:06:22.541Z,464.08
2022-09-12T22:09:12.029Z,467.40
2022-09-12T22:11:59.901Z,458.67
2022-09-12T22:14:48.232Z,492.85
2022-09-12T22:17:36.120Z,465.90
2022-09-12T22:20:24.053Z,486.48
2022-09-12T22:23:30.546Z,482.92
2022-09-12T22:26:20.367Z,454.58
2022-09-12T22:29:09.885Z,476.40
2022-09-12T22:31:57.809Z,459.42
2022-09-12T22:34:45.780Z,467.30
2022-09-12T22:37:33.631Z,455.35
2022-09-12T22:40:21.591Z,439.48
2022-09-12T22:43:11.409Z,445.98
2022-09-12T22:45:59.526Z,427.75
2022-09-12T22:48:47.684Z,459.23
2022-09-12T22:51:35.884Z,485.65
2022-09-12T22:54:23.733Z,456.15
2022-09-12T22:57:11.983Z,461.77
2022-09-12T23:00:01.198Z,494.83
2022-09-12T23:02:49.064Z,467.65
2022-09-12T23:05:37.835Z,454.15
2022-09-12T23:08:29.329Z,454.85
2022-09-12T23:11:19.076Z,469.85
2022-09-12T23:14:07.158Z,469.17
2022-09-12T23:16:56.473Z,475.08
2022-09-12T23:19:44.538Z,454.55
2022-09-12T23:22:32.646Z,489.52
2022-09-12T23:25:23.470Z,461.00
2022-09-12T23:28:14.652Z,468.98
2022-09-12T23:31:03.112Z,449.38
2022-09-12T23:33:53.303Z,473.15
2022-09-12T23:36:41.232Z,471.27
2022-09-12T23:39:29.141Z,492.35
2022-09-12T23:42:17.871Z,486.63
2022-09-12T23:45:06.271Z,500.23
2022-09-12T23:47:54.137Z,514.35
2022-09-12T23:50:45.981Z,516.72
2022-09-12T23:53:35.551Z,525.97
2022-09-12T23:56:23.438Z,533.03
2022-09-12T23:59:11.285Z,525.58
